createdAt,value
2018-06-23T00:00:18.832Z,99455.03
2018-06-23T00:02:47.351Z,99448.42
2018-06-23T00:05:16.010Z,99449.81
2018-06-23T00:07:44.617Z,99447.94
2018-06-23T00:10:14.363Z,99442.19
2018-06-23T00:12:42.822Z,99436.43
2018-06-23T00:15:11.548Z,99437.72
2018-06-23T00:17:40.097Z,99436.03
2018-06-23T00:20:08.682Z,99437.11
2018-06-23T00:22:37.280Z,99430.42
2018-06-23T00:25:05.917Z,99435.31
2018-06-23T00:27:35.163Z,99435.63
2018-06-23T00:30:07.899Z,99431.97
2018-06-23T00:32:36.390Z,99432.90
2018-06-23T00:35:04.942Z,99430.68
2018-06-23T00:37:33.444Z,99444.58
2018-06-23T00:40:01.947Z,99438.51
2018-06-23T00:42:30.582Z,99435.88
2018-06-23T00:44:59.050Z,99439.30
2018-06-23T00:47:27.466Z,99434.53
2018-06-23T00:49:55.962Z,99424.14
2018-06-23T00:52:24.474Z,99432.16
2018-06-23T00:54:52.923Z,99431.35
2018-06-23T00:57:21.457Z,99426.70
2018-06-23T00:59:50.143Z,99432.63
2018-06-23T01:02:18.550Z,99424.92
2018-06-23T01:04:47.049Z,99421.39
2018-06-23T01:07:16.010Z,99421.87
2018-06-23T01:09:44.497Z,99426.38
2018-06-23T01:12:13.054Z,99417.27
2018-06-23T01:14:41.704Z,99417.41
2018-06-23T01:17:11.283Z,99425.28
2018-06-23T01:19:41.922Z,99425.22
2018-06-23T01:22:11.025Z,99433.45
2018-06-23T01:24:39.499Z,99431.11
2018-06-23T01:27:08.234Z,99432.77
2018-06-23T01:29:36.811Z,99432.52
2018-06-23T01:32:05.540Z,99434.35
2018-06-23T01:34:34.069Z,99430.97
2018-06-23T01:37:02.608Z,99432.11
2018-06-23T01:39:31.401Z,99429.73
2018-06-23T01:41:59.988Z,99425.93
2018-06-23T01:44:28.490Z,99427.34
2018-06-23T01:46:56.955Z,99426.68
2018-06-23T01:49:25.483Z,99422.56
2018-06-23T01:51:53.987Z,99422.97
2018-06-23T01:54:22.534Z,99422.77
2018-06-23T02:02:42.966Z,99423.91
2018-06-23T02:05:11.417Z,99425.66
2018-06-23T02:07:39.832Z,99427.56
2018-06-23T02:10:08.321Z,99414.98
2018-06-23T02:12:36.987Z,99422.14
2018-06-23T02:15:11.342Z,99422.98
2018-06-23T02:17:45.502Z,99425.86
2018-06-23T02:20:20.024Z,99425.67
2018-06-23T02:22:53.839Z,99422.63
2018-06-23T02:25:27.559Z,99420.04
2018-06-23T02:28:01.441Z,99411.38
2018-06-23T02:30:36.442Z,99412.92
2018-06-23T02:33:10.107Z,99406.62
2018-06-23T02:35:38.589Z,99407.39
2018-06-23T02:38:07.160Z,99405.13
2018-06-23T02:40:35.643Z,99406.46
2018-06-23T02:43:04.684Z,99405.33
2018-06-23T02:45:33.159Z,99407.59
2018-06-23T02:48:01.627Z,99399.99
2018-06-23T02:50:30.112Z,99394.73
2018-06-23T02:52:58.575Z,99397.32
2018-06-23T02:55:27.216Z,99397.80
2018-06-23T02:57:56.087Z,99397.52
2018-06-23T03:00:24.551Z,99397.41
2018-06-23T03:02:52.997Z,99399.02
2018-06-23T03:05:21.701Z,99398.45
2018-06-23T03:07:50.118Z,99390.57
2018-06-23T03:10:18.626Z,99388.35
2018-06-23T03:12:47.142Z,99391.62
2018-06-23T03:15:15.931Z,99390.65
2018-06-23T03:17:44.415Z,99395.62
2018-06-23T03:20:12.842Z,99397.72
2018-06-23T03:22:41.314Z,99401.81
2018-06-23T03:25:09.834Z,99406.37
2018-06-23T03:27:38.254Z,99405.83
2018-06-23T03:30:06.739Z,99413.35
2018-06-23T03:32:35.258Z,99414.77
2018-06-23T03:35:03.794Z,99416.22
2018-06-23T03:37:32.203Z,99411.04
2018-06-23T03:40:00.726Z,99415.44
2018-06-23T03:42:29.150Z,99417.55
2018-06-23T03:44:57.574Z,99423.05
2018-06-23T03:47:26.039Z,99418.88
2018-06-23T03:49:54.527Z,99424.95
2018-06-23T03:52:23.010Z,99428.39
2018-06-23T03:54:51.490Z,99437.08
2018-06-23T03:57:19.939Z,99437.17
2018-06-23T03:59:48.358Z,99434.39
2018-06-23T04:02:16.886Z,99441.75
2018-06-23T04:04:45.453Z,99439.08
2018-06-23T04:07:13.907Z,99442.23
2018-06-23T04:09:42.422Z,99445.55
2018-06-23T04:12:10.870Z,99443.84
2018-06-23T04:14:39.328Z,99446.97
2018-06-23T04:17:11.961Z,99445.16
2018-06-23T04:19:40.426Z,99441.92
2018-06-23T04:22:09.124Z,99441.44
2018-06-23T04:24:37.902Z,99435.22
2018-06-23T04:27:06.363Z,99441.52
2018-06-23T04:29:35.047Z,99441.89
2018-06-23T04:32:03.577Z,99445.88
2018-06-23T04:34:31.992Z,99443.77
2018-06-23T04:37:00.483Z,99448.34
2018-06-23T04:39:29.330Z,99445.37
2018-06-23T04:41:57.790Z,99442.78
2018-06-23T04:44:26.187Z,99445.11
2018-06-23T04:46:54.729Z,99448.61
2018-06-23T04:49:23.154Z,99447.25
2018-06-23T04:51:51.710Z,99448.57
2018-06-23T04:54:20.488Z,99452.86
2018-06-23T04:56:48.927Z,99450.83
2018-06-23T04:59:17.463Z,99448.70
2018-06-23T05:01:46.102Z,99451.26
2018-06-23T05:04:14.578Z,99450.44
2018-06-23T05:06:43.063Z,99441.04
2018-06-23T05:09:11.556Z,99438.69
2018-06-23T05:11:40.117Z,99442.00
2018-06-23T05:14:08.594Z,99443.16
2018-06-23T05:16:37.091Z,99449.55
2018-06-23T05:19:05.762Z,99451.78
2018-06-23T05:21:34.677Z,99447.19
2018-06-23T05:24:03.449Z,99455.58
2018-06-23T05:26:32.306Z,99452.17
2018-06-23T05:30:29.959Z,99446.38
2018-06-23T05:32:58.542Z,99449.59
2018-06-23T05:35:27.026Z,99447.61
2018-06-23T05:37:55.527Z,99447.70
2018-06-23T05:40:23.982Z,99450.00
2018-06-23T05:42:52.574Z,99456.44
2018-06-23T05:45:21.372Z,99463.08
2018-06-23T05:47:49.862Z,99467.98
2018-06-23T05:50:18.414Z,99459.87
2018-06-23T05:52:47.149Z,99458.08
2018-06-23T05:55:15.654Z,99465.95
2018-06-23T05:57:44.422Z,99466.44
2018-06-23T06:00:13.109Z,99470.91
2018-06-23T06:02:41.773Z,99474.38
2018-06-23T06:05:10.229Z,99469.17
2018-06-23T06:07:38.871Z,99470.28
2018-06-23T06:10:07.500Z,99477.91
2018-06-23T06:12:36.584Z,99472.42
2018-06-23T06:15:05.295Z,99474.33
2018-06-23T06:17:37.847Z,99473.84
2018-06-23T06:20:09.623Z,99469.82
2018-06-23T06:22:45.701Z,99464.09
2018-06-23T06:25:14.799Z,99469.58
2018-06-23T06:27:43.498Z,99468.65
2018-06-23T06:30:12.458Z,99469.55
2018-06-23T06:32:40.927Z,99473.33
2018-06-23T06:35:09.382Z,99473.19
2018-06-23T06:37:37.966Z,99478.11
2018-06-23T06:40:07.329Z,99466.77
2018-06-23T06:42:35.842Z,99466.38
2018-06-23T06:45:04.875Z,99473.48
2018-06-23T06:47:33.386Z,99466.87
2018-06-23T06:50:02.199Z,99471.30
2018-06-23T06:52:30.697Z,99474.72
2018-06-23T06:54:59.248Z,99475.11
2018-06-23T06:57:28.508Z,99479.66
2018-06-23T06:59:57.041Z,99477.08
2018-06-23T07:02:25.654Z,99474.27
2018-06-23T07:04:54.111Z,99468.03
2018-06-23T07:07:22.579Z,99474.98
2018-06-23T07:09:51.003Z,99475.80
2018-06-23T07:12:20.105Z,99471.55
2018-06-23T07:14:51.135Z,99473.22
2018-06-23T07:17:19.634Z,99475.17
2018-06-23T07:19:48.147Z,99469.94
2018-06-23T07:22:16.786Z,99467.36
2018-06-23T07:24:45.248Z,99467.23
2018-06-23T07:27:13.982Z,99460.32
2018-06-23T07:29:43.511Z,99462.75
2018-06-23T07:32:11.977Z,99461.88
2018-06-23T07:34:40.712Z,99459.52
2018-06-23T07:37:09.392Z,99459.13
2018-06-23T07:39:37.990Z,99457.17
2018-06-23T07:42:06.439Z,99454.59
2018-06-23T07:44:34.986Z,99452.52
2018-06-23T07:47:03.523Z,99453.22
2018-06-23T07:49:31.989Z,99453.37
2018-06-23T07:52:00.472Z,99456.72
2018-06-23T07:54:29.082Z,99451.48
2018-06-23T07:56:57.563Z,99442.59
2018-06-23T07:59:26.287Z,99449.73
2018-06-23T08:01:55.310Z,99449.61
2018-06-23T08:04:23.774Z,99448.44
2018-06-23T08:06:52.498Z,99446.80
2018-06-23T08:09:21.567Z,99456.98
2018-06-23T08:11:50.109Z,99447.80
2018-06-23T08:14:18.497Z,99446.43
2018-06-23T08:16:47.658Z,99441.18
2018-06-23T08:19:16.255Z,99447.78
2018-06-23T08:21:44.830Z,99442.11
2018-06-23T08:24:13.244Z,99442.17
2018-06-23T08:26:43.247Z,99438.77
2018-06-23T08:29:12.063Z,99442.66
2018-06-23T08:31:40.497Z,99432.39
2018-06-23T08:34:11.118Z,99434.58
2018-06-23T08:36:39.743Z,99434.58
2018-06-23T08:39:08.650Z,99434.20
2018-06-23T08:41:37.214Z,99432.66
2018-06-23T08:44:05.724Z,99432.08
2018-06-23T08:46:34.213Z,99431.42
2018-06-23T08:49:02.697Z,99429.45
2018-06-23T08:51:31.337Z,99433.39
2018-06-23T08:53:59.886Z,99431.59
2018-06-23T08:56:28.630Z,99426.67
2018-06-23T08:58:57.158Z,99416.86
2018-06-23T09:01:26.111Z,99417.14
2018-06-23T09:03:54.617Z,99411.30
2018-06-23T09:06:23.135Z,99408.16
2018-06-23T09:08:51.646Z,99407.93
2018-06-23T09:11:20.100Z,99401.95
2018-06-23T09:13:48.554Z,99395.12
2018-06-23T09:16:17.182Z,99402.69
2018-06-23T09:18:46.069Z,99390.09
2018-06-23T09:21:14.712Z,99393.63
2018-06-23T09:23:43.219Z,99392.06
2018-06-23T09:26:11.674Z,99395.80
2018-06-23T09:28:40.152Z,99385.30
2018-06-23T09:31:08.692Z,99391.63
2018-06-23T09:33:37.177Z,99393.15
2018-06-23T09:36:05.672Z,99394.77
2018-06-23T09:38:34.175Z,99404.61
2018-06-23T09:41:03.274Z,99402.66
2018-06-23T09:43:32.161Z,99408.08
2018-06-23T09:46:00.739Z,99404.56
2018-06-23T09:48:29.142Z,99394.88
2018-06-23T09:50:57.639Z,99399.48
2018-06-23T09:53:26.357Z,99391.56
2018-06-23T09:55:55.022Z,99398.56
2018-06-23T09:58:23.468Z,99406.50
2018-06-23T10:00:51.927Z,99409.05
2018-06-23T10:03:20.483Z,99409.35
2018-06-23T10:05:48.903Z,99409.33
2018-06-23T10:08:17.458Z,99403.70
2018-06-23T10:10:46.162Z,99398.87
2018-06-23T10:13:14.683Z,99398.84
2018-06-23T10:15:43.051Z,99395.05
2018-06-23T10:18:11.893Z,99397.42
2018-06-23T10:20:40.366Z,99393.75
2018-06-23T10:23:08.843Z,99392.48
2018-06-23T10:25:37.250Z,99396.13
2018-06-23T10:28:06.039Z,99392.11
2018-06-23T10:30:34.602Z,99392.30
2018-06-23T10:33:03.026Z,99382.75
2018-06-23T10:35:31.502Z,99396.27
2018-06-23T10:38:00.105Z,99401.91
2018-06-23T10:40:28.591Z,99390.83
2018-06-23T10:42:57.279Z,99395.40
2018-06-23T10:45:25.741Z,99397.19
2018-06-23T10:47:54.463Z,99390.97
2018-06-23T10:50:22.927Z,99389.73
2018-06-23T10:52:51.418Z,99394.39
2018-06-23T10:55:19.874Z,99393.20
2018-06-23T10:57:52.116Z,99395.47
2018-06-23T11:00:20.788Z,99389.01
2018-06-23T11:02:49.454Z,99387.59
2018-06-23T11:05:18.063Z,99383.16
2018-06-23T11:07:46.467Z,99371.11
2018-06-23T11:10:15.193Z,99371.13
2018-06-23T11:12:43.673Z,99369.56
2018-06-23T11:15:12.162Z,99365.80
2018-06-23T11:17:40.639Z,99368.91
2018-06-23T11:20:09.114Z,99374.20
2018-06-23T11:22:37.522Z,99365.88
2018-06-23T11:25:05.999Z,99361.48
2018-06-23T11:27:34.529Z,99354.73
2018-06-23T11:30:03.210Z,99362.02
2018-06-23T11:32:31.719Z,99354.50
2018-06-23T11:35:00.631Z,99349.78
2018-06-23T11:37:29.080Z,99348.50
2018-06-23T11:39:57.795Z,99357.50
2018-06-23T11:42:26.450Z,99351.23
2018-06-23T11:44:55.438Z,99341.22
2018-06-23T11:47:23.910Z,99354.88
2018-06-23T11:49:52.727Z,99346.46
2018-06-23T11:52:21.372Z,99340.81
2018-06-23T11:54:49.859Z,99353.77
2018-06-23T11:57:18.304Z,99345.74
2018-06-23T11:59:46.766Z,99334.97
2018-06-23T12:02:15.312Z,99339.06
2018-06-23T12:04:43.947Z,99336.41
2018-06-23T12:07:12.778Z,99335.48
2018-06-23T12:09:41.240Z,99333.31
2018-06-23T12:12:09.695Z,99328.92
2018-06-23T12:14:38.432Z,99327.02
2018-06-23T12:17:07.008Z,99328.63
2018-06-23T12:19:35.398Z,99317.83
2018-06-23T12:22:03.966Z,99311.56
2018-06-23T12:24:32.431Z,99321.50
2018-06-23T12:27:00.878Z,99310.88
2018-06-23T12:29:29.463Z,99307.36
2018-06-23T12:31:57.882Z,99309.77
2018-06-23T12:34:26.394Z,99302.92
2018-06-23T12:36:54.899Z,99292.05
2018-06-23T12:39:23.369Z,99298.17
2018-06-23T12:41:51.848Z,99296.47
2018-06-23T12:44:20.351Z,99296.09
2018-06-23T12:46:49.006Z,99287.64
2018-06-23T12:49:17.522Z,99278.56
2018-06-23T12:51:46.082Z,99281.98
2018-06-23T12:54:14.519Z,99284.09
2018-06-23T12:56:43.038Z,99284.89
2018-06-23T12:59:11.446Z,99275.72
2018-06-23T13:01:44.379Z,99269.77
2018-06-23T13:04:12.811Z,99265.61
2018-06-23T13:06:41.466Z,99269.55
2018-06-23T13:09:11.591Z,99260.37
2018-06-23T13:11:40.105Z,99261.37
2018-06-23T13:14:08.660Z,99260.00
2018-06-23T13:16:37.222Z,99254.31
2018-06-23T13:19:05.652Z,99252.32
2018-06-23T13:21:34.164Z,99255.30
2018-06-23T13:24:02.796Z,99254.75
2018-06-23T13:26:31.228Z,99254.01
2018-06-23T13:29:00.039Z,99241.81
2018-06-23T13:31:28.550Z,99245.72
2018-06-23T13:33:57.107Z,99238.58
2018-06-23T13:36:25.646Z,99237.16
2018-06-23T13:38:54.186Z,99239.95
2018-06-23T13:41:22.787Z,99232.16
2018-06-23T13:43:51.465Z,99233.92
2018-06-23T13:46:19.879Z,99229.95
2018-06-23T13:48:48.374Z,99227.94
2018-06-23T13:51:17.075Z,99228.04
2018-06-23T13:53:45.779Z,99231.45
2018-06-23T13:56:14.202Z,99225.69
2018-06-23T13:58:42.724Z,99214.75
2018-06-23T14:01:11.141Z,99211.00
2018-06-23T14:03:39.728Z,99221.55
2018-06-23T14:06:08.255Z,99209.09
2018-06-23T14:08:36.914Z,99206.56
2018-06-23T14:11:09.176Z,99200.20
2018-06-23T14:13:37.643Z,99196.00
2018-06-23T14:16:06.123Z,99196.41
2018-06-23T14:18:34.590Z,99195.45
2018-06-23T14:21:03.047Z,99191.44
2018-06-23T14:23:31.685Z,99189.80
2018-06-23T14:26:00.307Z,99187.38
2018-06-23T14:28:33.172Z,99188.70
2018-06-23T14:31:02.055Z,99175.33
2018-06-23T14:33:30.518Z,99180.25
2018-06-23T14:35:58.962Z,99171.39
2018-06-23T14:38:27.492Z,99179.38
2018-06-23T14:40:56.000Z,99177.45
2018-06-23T14:43:24.503Z,99178.73
2018-06-23T14:45:52.962Z,99175.90
2018-06-23T14:48:21.443Z,99185.43
2018-06-23T14:50:49.972Z,99183.15
2018-06-23T14:53:18.495Z,99183.61
2018-06-23T14:55:47.064Z,99181.55
2018-06-23T14:58:16.003Z,99181.55
2018-06-23T15:00:44.602Z,99184.23
2018-06-23T15:03:13.088Z,99174.47
2018-06-23T15:05:41.506Z,99179.42
2018-06-23T15:08:21.443Z,99183.89
2018-06-23T15:11:01.262Z,99183.22
2018-06-23T15:13:29.749Z,99177.25
2018-06-23T15:15:58.338Z,99174.56
2018-06-23T15:18:26.769Z,99182.37
2018-06-23T15:20:55.450Z,99176.44
2018-06-23T15:23:23.950Z,99182.88
2018-06-23T15:25:52.423Z,99174.17
2018-06-23T15:28:20.889Z,99174.97
2018-06-23T15:30:49.411Z,99174.22
2018-06-23T15:33:17.999Z,99159.59
2018-06-23T15:35:46.627Z,99163.59
2018-06-23T15:38:15.117Z,99159.12
2018-06-23T15:40:43.584Z,99161.86
2018-06-23T15:43:12.130Z,99153.16
2018-06-23T15:45:40.606Z,99157.70
2018-06-23T15:48:09.075Z,99150.62
2018-06-23T15:50:37.571Z,99151.48
2018-06-23T15:53:06.247Z,99155.84
2018-06-23T15:55:34.891Z,99153.70
2018-06-23T15:58:03.316Z,99147.56
2018-06-23T16:00:31.919Z,99140.55
2018-06-23T16:03:00.483Z,99149.16
2018-06-23T16:05:29.002Z,99149.49
2018-06-23T16:07:57.520Z,99147.73
2018-06-23T16:10:26.438Z,99140.20
2018-06-23T16:12:55.387Z,99138.59
2018-06-23T16:15:24.083Z,99139.43
2018-06-23T16:17:52.751Z,99131.61
2018-06-23T16:20:21.280Z,99137.27
2018-06-23T16:22:49.763Z,99137.48
2018-06-23T16:25:19.937Z,99133.98
2018-06-23T16:27:48.858Z,99119.72
2018-06-23T16:30:17.673Z,99133.09
2018-06-23T16:32:46.143Z,99134.52
2018-06-23T16:35:14.767Z,99125.27
2018-06-23T16:37:43.071Z,99125.11
2018-06-23T16:40:11.499Z,99127.83
2018-06-23T16:42:39.983Z,99120.64
2018-06-23T16:45:08.851Z,99120.22
2018-06-23T16:47:37.336Z,99112.58
2018-06-23T16:50:05.939Z,99137.00
2018-06-23T16:52:34.444Z,99120.95
2018-06-23T16:55:02.855Z,99113.03
2018-06-23T16:57:31.354Z,99120.84
2018-06-23T16:59:59.782Z,99115.20
2018-06-23T17:02:28.486Z,99119.97
2018-06-23T17:04:57.102Z,99125.22
2018-06-23T17:07:25.577Z,99122.66
2018-06-23T17:09:54.018Z,99125.50
2018-06-23T17:12:22.730Z,99124.97
2018-06-23T17:14:51.353Z,99127.43
2018-06-23T17:17:19.914Z,99123.41
2018-06-23T17:19:48.438Z,99122.77
2018-06-23T17:22:16.923Z,99118.98
2018-06-23T17:24:45.439Z,99120.31
2018-06-23T17:27:14.001Z,99117.16
2018-06-23T17:29:42.530Z,99120.60
2018-06-23T17:32:11.294Z,99118.96
2018-06-23T17:34:39.556Z,99121.56
2018-06-23T17:37:08.155Z,99119.98
2018-06-23T17:39:36.637Z,99122.42
2018-06-23T17:42:05.302Z,99113.11
2018-06-23T17:44:33.903Z,99117.50
2018-06-23T17:47:02.590Z,99110.69
2018-06-23T17:49:31.175Z,99113.75
2018-06-23T17:51:59.807Z,99111.78
2018-06-23T17:54:28.267Z,99119.00
2018-06-23T17:56:56.855Z,99106.39
2018-06-23T17:59:25.430Z,99114.86
2018-06-23T18:01:54.153Z,99114.77
2018-06-23T18:04:22.650Z,99110.84
2018-06-23T18:06:51.704Z,99108.20
2018-06-23T18:09:20.217Z,99102.50
2018-06-23T18:11:49.233Z,99109.59
2018-06-23T18:14:18.283Z,99108.16
2018-06-23T18:16:46.828Z,99106.92
2018-06-23T18:19:16.035Z,99106.05
2018-06-23T18:21:44.571Z,99106.47
2018-06-23T18:24:13.122Z,99106.66
2018-06-23T18:26:41.757Z,99104.05
2018-06-23T18:29:10.334Z,99115.36
2018-06-23T18:31:38.910Z,99113.88
2018-06-23T18:34:07.436Z,99113.56
2018-06-23T18:36:36.042Z,99110.22
2018-06-23T18:39:06.830Z,99105.84
2018-06-23T18:41:35.420Z,99110.13
2018-06-23T18:44:04.282Z,99108.30
2018-06-23T18:46:32.790Z,99111.06
2018-06-23T18:49:01.333Z,99110.73
2018-06-23T18:51:29.760Z,99104.02
2018-06-23T18:53:58.499Z,99107.08
2018-06-23T18:56:26.981Z,99104.39
2018-06-23T18:58:55.426Z,99102.36
2018-06-23T19:01:23.943Z,99103.89
2018-06-23T19:03:52.430Z,99107.14
2018-06-23T19:06:21.033Z,99109.34
2018-06-23T19:08:49.454Z,99104.07
2018-06-23T19:11:18.283Z,99102.71
2018-06-23T19:13:46.771Z,99103.91
2018-06-23T19:16:15.257Z,99105.25
2018-06-23T19:18:43.950Z,99114.55
2018-06-23T19:21:12.546Z,99112.17
2018-06-23T19:23:41.002Z,99110.63
2018-06-23T19:26:09.614Z,99118.92
2018-06-23T19:28:38.198Z,99118.00
2018-06-23T19:31:07.227Z,99124.06
2018-06-23T19:33:35.999Z,99121.48
2018-06-23T19:36:05.552Z,99120.94
2018-06-23T19:38:35.050Z,99127.71
2018-06-23T19:41:13.709Z,99124.47
2018-06-23T19:43:42.772Z,99123.44
2018-06-23T19:46:11.195Z,99123.05
2018-06-23T19:48:40.280Z,99130.98
2018-06-23T19:51:08.943Z,99133.42
2018-06-23T19:53:37.682Z,99128.99
2018-06-23T19:56:06.223Z,99134.03
2018-06-23T19:58:35.007Z,99134.65
2018-06-23T20:01:03.636Z,99138.41
2018-06-23T20:03:32.183Z,99142.34
2018-06-23T20:06:00.760Z,99143.27
2018-06-23T20:08:29.244Z,99138.66
2018-06-23T20:10:58.083Z,99138.47
2018-06-23T20:13:27.022Z,99137.89
2018-06-23T20:15:55.756Z,99137.50
2018-06-23T20:18:24.597Z,99137.39
2018-06-23T20:20:53.251Z,99148.00
2018-06-23T20:23:21.973Z,99150.95
2018-06-23T20:25:50.415Z,99149.16
2018-06-23T20:28:19.961Z,99154.66
2018-06-23T20:30:49.079Z,99150.41
2018-06-23T20:33:17.895Z,99149.01
2018-06-23T20:35:46.527Z,99147.63
2018-06-23T20:38:14.935Z,99151.00
2018-06-23T20:40:43.431Z,99149.96
2018-06-23T20:43:11.918Z,99151.28
2018-06-23T20:45:40.450Z,99149.94
2018-06-23T20:48:08.890Z,99154.27
2018-06-23T20:50:37.403Z,99154.00
2018-06-23T20:53:05.988Z,99159.20
2018-06-23T20:55:34.632Z,99157.39
2018-06-23T20:58:03.172Z,99157.95
2018-06-23T21:00:31.671Z,99155.79
2018-06-23T21:03:00.525Z,99154.98
2018-06-23T21:05:28.967Z,99159.56
2018-06-23T21:07:57.588Z,99156.69
2018-06-23T21:10:46.713Z,99160.31
2018-06-23T21:13:15.202Z,99155.72
2018-06-23T21:15:43.720Z,99157.09
2018-06-23T21:18:12.279Z,99147.73
2018-06-23T21:20:40.793Z,99139.22
2018-06-23T21:23:09.451Z,99153.00
2018-06-23T21:25:38.023Z,99153.56
2018-06-23T21:28:06.599Z,99146.06
2018-06-23T21:30:35.176Z,99150.70
2018-06-23T21:33:03.627Z,99147.55
2018-06-23T21:35:32.113Z,99160.23
2018-06-23T21:38:00.795Z,99151.81
2018-06-23T21:40:29.272Z,99151.73
2018-06-23T21:42:57.703Z,99143.44
2018-06-23T21:45:26.182Z,99147.34
2018-06-23T21:47:54.794Z,99145.49
2018-06-23T21:50:23.262Z,99145.28
2018-06-23T21:52:51.795Z,99143.46
2018-06-23T21:55:20.379Z,99144.09
2018-06-23T21:57:48.850Z,99139.97
2018-06-23T22:00:41.031Z,99146.36
2018-06-23T22:03:10.948Z,99149.33
2018-06-23T22:05:39.607Z,99154.43
2018-06-23T22:08:09.156Z,99161.02
2018-06-23T22:10:37.907Z,99157.39
2018-06-23T22:13:06.487Z,99156.40
2018-06-23T22:15:35.016Z,99155.39
2018-06-23T22:18:03.538Z,99151.77
2018-06-23T22:20:32.058Z,99152.55
2018-06-23T22:23:00.625Z,99157.84
2018-06-23T22:25:29.204Z,99153.52
2018-06-23T22:27:57.704Z,99150.48
2018-06-23T22:30:26.166Z,99149.48
2018-06-23T22:32:55.332Z,99152.11
2018-06-23T22:35:23.782Z,99162.45
2018-06-23T22:37:52.368Z,99154.22
2018-06-23T22:40:20.894Z,99157.31
2018-06-23T22:42:49.381Z,99155.67
2018-06-23T22:45:18.192Z,99161.73
2018-06-23T22:47:46.606Z,99159.48
2018-06-23T22:50:15.136Z,99156.80
2018-06-23T22:52:43.619Z,99155.73
2018-06-23T22:55:12.084Z,99152.50
2018-06-23T22:57:40.615Z,99153.00
2018-06-23T23:00:11.123Z,99154.72
2018-06-23T23:02:39.767Z,99157.44
2018-06-23T23:05:08.706Z,99152.03
2018-06-23T23:07:37.461Z,99153.40
2018-06-23T23:10:06.841Z,99153.16
2018-06-23T23:12:35.404Z,99157.81
2018-06-23T23:15:04.179Z,99159.33
2018-06-23T23:17:36.722Z,99153.16
2018-06-23T23:20:06.089Z,99150.17
2018-06-23T23:22:34.638Z,99159.74
2018-06-23T23:25:03.232Z,99156.02
2018-06-23T23:27:31.727Z,99150.80
2018-06-23T23:30:00.284Z,99153.42
2018-06-23T23:32:28.671Z,99149.13
2018-06-23T23:34:57.211Z,99148.16
2018-06-23T23:37:25.663Z,99146.44
2018-06-23T23:39:54.238Z,99141.95
2018-06-23T23:42:22.836Z,99141.83
2018-06-23T23:44:51.318Z,99140.87
2018-06-23T23:47:20.044Z,99141.86
2018-06-23T23:49:48.506Z,99138.48
2018-06-23T23:52:17.500Z,99137.52
2018-06-23T23:54:46.219Z,99135.10
2018-06-23T23:57:14.640Z,99126.28
2018-06-23T23:59:43.138Z,99127.62
